Time;durP1;ratioP1;P1;durP2;ratioP2;P2;SDS_P1;SDS_P2;PMS_P1;PMS_P2;Temp;Humidity;BMP_temperature;BMP_pressure;BME280_temperature;BME280_humidity;BME280_pressure;Samples;Min_cycle;Max_cycle;Signal;HPM_P1;HPM_P2
2022/02/27 00:00:01;;;;;;;10.00;5.50;;;0.50;67.80;;;;;;5096806;28;20229;-75
2022/02/27 00:02:28;;;;;;;9.10;5.38;;;0.50;68.20;;;;;;5097707;28;20205;-75
2022/02/27 00:04:55;;;;;;;11.80;6.00;;;0.50;68.10;;;;;;5109364;28;20202;-75
2022/02/27 00:07:22;;;;;;;10.23;4.85;;;0.60;68.10;;;;;;5117760;28;20251;-75
2022/02/27 00:09:50;;;;;;;10.57;5.20;;;0.50;68.20;;;;;;5105075;28;20236;-74
2022/02/27 00:12:17;;;;;;;7.70;5.40;;;0.50;68.50;;;;;;5113706;28;20193;-74
2022/02/27 00:14:43;;;;;;;11.77;5.97;;;0.50;68.60;;;;;;5113618;28;20209;-74
2022/02/27 00:17:10;;;;;;;11.07;5.40;;;0.50;69.20;;;;;;5098903;28;20237;-74
2022/02/27 00:19:37;;;;;;;12.60;5.35;;;0.50;69.20;;;;;;5097076;28;20247;-74
2022/02/27 00:22:04;;;;;;;13.73;5.82;;;0.50;69.20;;;;;;5115263;28;20201;-73
2022/02/27 00:24:31;;;;;;;12.05;6.07;;;0.50;69.20;;;;;;5118417;28;20253;-73
2022/02/27 00:26:59;;;;;;;9.25;5.32;;;0.50;69.20;;;;;;5118392;28;20237;-74
2022/02/27 00:29:26;;;;;;;12.43;5.40;;;0.50;69.20;;;;;;5118412;28;20204;-74
2022/02/27 00:31:53;;;;;;;11.70;5.93;;;0.40;69.10;;;;;;5117955;28;20190;-74
2022/02/27 00:34:20;;;;;;;11.18;6.05;;;0.40;69.20;;;;;;5115075;28;20316;-74
2022/02/27 00:36:50;;;;;;;12.43;6.43;;;0.30;69.20;;;;;;5101966;28;20416;-75
2022/02/27 00:39:18;;;;;;;10.73;5.63;;;0.30;70.00;;;;;;5096633;28;20599;-74
2022/02/27 00:41:45;;;;;;;8.05;5.70;;;0.30;70.30;;;;;;5097417;28;20700;-75
2022/02/27 00:44:13;;;;;;;6.25;4.85;;;0.20;70.50;;;;;;5096942;28;20581;-74
2022/02/27 00:46:40;;;;;;;12.43;6.15;;;0.20;71.20;;;;;;5096267;28;20316;-74
2022/02/27 00:49:07;;;;;;;9.55;5.55;;;0.20;71.70;;;;;;5096460;28;20205;-74
2022/02/27 00:51:33;;;;;;;9.98;5.93;;;0.20;72.30;;;;;;5096476;28;20205;-75
2022/02/27 00:54:00;;;;;;;9.38;5.20;;;0.10;72.50;;;;;;5100767;28;20238;-75
2022/02/27 00:56:27;;;;;;;11.07;6.20;;;0.10;73.10;;;;;;5115295;28;20216;-75
2022/02/27 00:58:54;;;;;;;10.75;6.10;;;0.10;73.90;;;;;;5113944;28;20268;-75
2022/02/27 01:01:22;;;;;;;12.70;6.43;;;0.20;73.90;;;;;;5109749;28;20224;-74
2022/02/27 01:03:49;;;;;;;9.73;5.57;;;0.10;74.10;;;;;;5104154;28;20228;-74
2022/02/27 01:06:17;;;;;;;13.00;6.18;;;0.10;74.50;;;;;;5095750;28;20297;-75
2022/02/27 01:08:44;;;;;;;10.57;5.80;;;0.00;75.10;;;;;;5094935;28;20576;-75
2022/02/27 01:11:11;;;;;;;9.02;5.90;;;0.00;76.20;;;;;;5099220;28;20536;-74
2022/02/27 01:13:38;;;;;;;14.35;6.45;;;0.00;76.60;;;;;;5096446;28;20212;-73
2022/02/27 01:16:06;;;;;;;13.02;6.65;;;0.10;77.10;;;;;;5097987;28;20241;-74
2022/02/27 01:18:35;;;;;;;11.55;6.78;;;0.10;76.40;;;;;;5110471;28;20225;-74
2022/02/27 01:21:01;;;;;;;8.20;5.70;;;0.10;76.00;;;;;;5097631;28;20225;-74
2022/02/27 01:23:28;;;;;;;11.13;6.00;;;0.00;76.00;;;;;;5095717;28;20797;-74
2022/02/27 01:25:55;;;;;;;7.72;6.25;;;0.00;76.20;;;;;;5095820;28;20205;-75
2022/02/27 01:28:22;;;;;;;16.83;6.75;;;0.00;77.20;;;;;;5095003;28;20728;-74
2022/02/27 01:30:49;;;;;;;13.30;6.35;;;0.00;77.10;;;;;;5094045;28;20208;-74
2022/02/27 01:33:15;;;;;;;8.48;5.47;;;0.00;77.20;;;;;;5095302;28;20205;-74
2022/02/27 01:35:44;;;;;;;14.82;6.35;;;0.10;77.20;;;;;;5095677;28;20237;-74
2022/02/27 01:38:10;;;;;;;9.98;5.82;;;0.10;77.00;;;;;;5104511;28;20264;-74
2022/02/27 01:40:38;;;;;;;12.75;7.00;;;0.10;77.00;;;;;;5102705;28;20229;-74
2022/02/27 01:43:04;;;;;;;10.38;6.00;;;0.20;76.10;;;;;;5103426;28;20261;-74
2022/02/27 01:45:31;;;;;;;13.43;6.57;;;0.20;75.80;;;;;;5096746;28;20704;-74
2022/02/27 01:47:58;;;;;;;12.10;5.72;;;0.10;76.00;;;;;;5094697;28;20743;-74
2022/02/27 01:50:25;;;;;;;10.35;5.70;;;0.10;76.20;;;;;;5105397;28;20201;-75
2022/02/27 01:52:53;;;;;;;9.82;5.65;;;0.10;76.20;;;;;;5112827;28;20185;-76
2022/02/27 01:55:20;;;;;;;10.80;6.25;;;0.10;76.10;;;;;;5114533;28;20228;-75
2022/02/27 01:57:48;;;;;;;9.80;5.75;;;0.10;76.40;;;;;;5113862;28;20241;-75
2022/02/27 02:00:16;;;;;;;18.15;6.25;;;0.00;76.40;;;;;;5113642;28;20278;-75
2022/02/27 02:02:43;;;;;;;14.98;6.05;;;0.00;77.10;;;;;;5113265;28;20233;-74
2022/02/27 02:05:10;;;;;;;10.95;5.03;;;-0.10;77.10;;;;;;5115673;28;20190;-74
2022/02/27 02:07:38;;;;;;;6.60;5.47;;;0.00;77.20;;;;;;5115573;28;20231;-74
2022/02/27 02:10:07;;;;;;;12.02;5.28;;;-0.10;77.10;;;;;;5116045;28;20198;-74
2022/02/27 02:12:34;;;;;;;8.35;5.65;;;-0.10;77.10;;;;;;5115283;28;20193;-74
2022/02/27 02:15:01;;;;;;;9.63;6.05;;;-0.20;78.00;;;;;;5104163;28;20274;-75
2022/02/27 02:17:30;;;;;;;10.52;5.82;;;-0.20;78.50;;;;;;5094159;28;20884;-75
2022/02/27 02:19:58;;;;;;;14.93;5.30;;;-0.20;78.60;;;;;;5094270;28;20209;-74
2022/02/27 02:22:25;;;;;;;11.90;5.68;;;-0.20;78.90;;;;;;5094284;28;20213;-74
2022/02/27 02:24:52;;;;;;;10.20;5.38;;;-0.20;79.30;;;;;;5096839;28;20212;-74
2022/02/27 02:27:19;;;;;;;6.95;5.68;;;-0.20;79.10;;;;;;5107250;28;20260;-74
2022/02/27 02:29:46;;;;;;;14.68;5.60;;;-0.20;79.50;;;;;;5106797;28;20205;-74
2022/02/27 02:32:13;;;;;;;12.80;4.65;;;-0.20;79.20;;;;;;5103333;28;20216;-74
2022/02/27 02:34:40;;;;;;;11.32;5.63;;;-0.20;79.30;;;;;;5107596;28;20209;-75
2022/02/27 02:37:11;;;;;;;10.40;5.50;;;-0.20;79.10;;;;;;5094846;28;20229;-76
2022/02/27 02:39:38;;;;;;;11.80;5.60;;;-0.10;78.80;;;;;;5094474;28;20212;-74
2022/02/27 02:42:05;;;;;;;13.95;6.35;;;-0.10;78.10;;;;;;5095902;28;20217;-74
2022/02/27 02:44:32;;;;;;;8.32;5.18;;;-0.10;77.20;;;;;;5100562;28;20232;-75
2022/02/27 02:46:59;;;;;;;11.30;5.25;;;-0.10;77.10;;;;;;5102657;28;20736;-75
2022/02/27 02:49:26;;;;;;;12.10;4.95;;;-0.10;77.10;;;;;;5108045;28;20208;-75
2022/02/27 02:51:53;;;;;;;9.95;5.97;;;-0.10;77.10;;;;;;5106814;28;20231;-76
2022/02/27 02:54:21;;;;;;;11.82;5.50;;;-0.10;77.10;;;;;;5107739;28;20216;-75
2022/02/27 02:56:48;;;;;;;7.28;4.85;;;-0.10;77.10;;;;;;5107390;28;20233;-75
2022/02/27 02:59:15;;;;;;;9.85;5.25;;;-0.10;76.80;;;;;;5107203;28;20213;-75
2022/02/27 03:01:42;;;;;;;9.63;4.95;;;0.00;76.50;;;;;;5108550;28;20225;-75
2022/02/27 03:04:09;;;;;;;17.63;5.63;;;0.00;76.20;;;;;;5108288;28;20300;-75
2022/02/27 03:06:36;;;;;;;13.80;4.90;;;-0.10;76.10;;;;;;5098157;28;20308;-75
2022/02/27 03:09:04;;;;;;;7.40;4.30;;;-0.10;75.80;;;;;;5096766;28;20572;-75
2022/02/27 03:11:33;;;;;;;9.35;4.65;;;-0.10;76.00;;;;;;5096729;28;20686;-74
2022/02/27 03:14:01;;;;;;;12.80;5.28;;;-0.10;76.40;;;;;;5096589;28;20209;-74
2022/02/27 03:16:28;;;;;;;10.43;5.40;;;-0.10;76.10;;;;;;5096988;28;20208;-74
2022/02/27 03:18:55;;;;;;;9.75;4.93;;;-0.10;76.90;;;;;;5097443;28;20212;-74
2022/02/27 03:21:22;;;;;;;11.40;5.05;;;-0.10;76.30;;;;;;5097203;28;20233;-74
2022/02/27 03:23:52;;;;;;;15.25;4.97;;;-0.10;76.20;;;;;;5096910;28;20294;-74
2022/02/27 03:26:19;;;;;;;9.35;4.75;;;-0.10;76.20;;;;;;5096834;28;20232;-74
2022/02/27 03:28:47;;;;;;;8.68;5.20;;;-0.10;76.00;;;;;;5098308;28;20599;-74
2022/02/27 03:31:14;;;;;;;8.13;4.53;;;-0.10;76.20;;;;;;5098055;28;20566;-74
2022/02/27 03:33:41;;;;;;;7.35;4.72;;;-0.10;76.10;;;;;;5098172;28;20205;-74
2022/02/27 03:36:08;;;;;;;12.35;4.45;;;-0.20;76.30;;;;;;5112139;28;20285;-73
2022/02/27 03:38:35;;;;;;;10.48;4.10;;;-0.10;76.00;;;;;;5112094;28;20237;-74
2022/02/27 03:41:02;;;;;;;8.07;4.25;;;-0.10;75.80;;;;;;5097557;28;20298;-76
2022/02/27 03:43:29;;;;;;;8.88;4.53;;;-0.10;75.20;;;;;;5096064;28;20209;-74
2022/02/27 03:45:57;;;;;;;9.10;4.10;;;0.00;74.60;;;;;;5096198;28;20300;-75
2022/02/27 03:48:24;;;;;;;8.50;4.00;;;0.00;74.30;;;;;;5095649;28;20225;-75
2022/02/27 03:50:51;;;;;;;8.90;4.28;;;0.00;74.20;;;;;;5095633;28;20220;-75
2022/02/27 03:53:18;;;;;;;10.18;4.35;;;-0.10;74.00;;;;;;5095145;28;20202;-74
2022/02/27 03:55:45;;;;;;;10.73;4.57;;;0.00;74.60;;;;;;5095042;28;20606;-75
2022/02/27 03:58:12;;;;;;;13.27;4.03;;;0.00;74.00;;;;;;5096646;28;20229;-75
2022/02/27 04:00:38;;;;;;;8.90;4.25;;;-0.10;74.20;;;;;;5095764;28;20222;-75
2022/02/27 04:03:08;;;;;;;6.80;3.30;;;-0.20;74.40;;;;;;5096361;28;20273;-75
2022/02/27 04:05:36;;;;;;;10.43;5.15;;;-0.10;75.60;;;;;;5095944;28;20232;-75
2022/02/27 04:08:04;;;;;;;9.90;4.60;;;-0.10;76.50;;;;;;5095496;28;20225;-75
2022/02/27 04:10:31;;;;;;;11.00;4.70;;;0.00;76.30;;;;;;5095448;28;20695;-75
2022/02/27 04:12:57;;;;;;;6.90;3.67;;;-0.10;76.10;;;;;;5095035;28;20677;-75
2022/02/27 04:15:25;;;;;;;9.65;5.00;;;-0.10;76.40;;;;;;5095075;28;20288;-74
2022/02/27 04:17:52;;;;;;;6.53;4.30;;;-0.10;77.00;;;;;;5095170;28;20332;-74
2022/02/27 04:20:20;;;;;;;5.65;3.95;;;-0.10;77.10;;;;;;5095125;28;20206;-75
2022/02/27 04:22:47;;;;;;;9.65;5.10;;;-0.20;77.00;;;;;;5095060;28;20697;-75
2022/02/27 04:25:14;;;;;;;14.23;4.13;;;-0.20;77.80;;;;;;5095202;28;20217;-76
2022/02/27 04:27:41;;;;;;;10.98;4.63;;;-0.20;77.70;;;;;;5094960;28;20236;-75
2022/02/27 04:30:09;;;;;;;11.65;4.88;;;-0.20;78.40;;;;;;5095161;28;20229;-75
2022/02/27 04:32:36;;;;;;;8.55;4.28;;;-0.10;78.70;;;;;;5095984;28;20209;-75
2022/02/27 04:35:02;;;;;;;10.40;4.07;;;-0.20;78.50;;;;;;5095650;28;20241;-75
2022/02/27 04:37:31;;;;;;;12.25;4.35;;;-0.30;78.80;;;;;;5095486;28;20237;-75
2022/02/27 04:39:57;;;;;;;11.18;4.60;;;-0.20;79.60;;;;;;5095401;28;20209;-75
2022/02/27 04:42:24;;;;;;;7.55;4.60;;;-0.20;80.20;;;;;;5095621;28;20688;-75
2022/02/27 04:44:51;;;;;;;6.28;4.40;;;-0.20;80.40;;;;;;5101962;28;20280;-74
2022/02/27 04:47:18;;;;;;;11.77;4.10;;;-0.20;80.90;;;;;;5109467;28;20225;-74
2022/02/27 04:49:48;;;;;;;10.63;4.53;;;-0.20;80.50;;;;;;5115958;28;20660;-75
2022/02/27 04:52:15;;;;;;;9.80;5.00;;;-0.30;80.80;;;;;;5112999;28;20230;-74
2022/02/27 04:54:43;;;;;;;8.88;4.82;;;-0.30;81.10;;;;;;5115307;28;20193;-74
2022/02/27 04:57:10;;;;;;;10.40;4.93;;;-0.30;81.00;;;;;;5100102;28;20763;-74
2022/02/27 04:59:37;;;;;;;8.55;5.50;;;-0.40;81.20;;;;;;5099776;28;20216;-74
2022/02/27 05:02:04;;;;;;;12.30;5.63;;;-0.40;81.30;;;;;;5111800;28;20221;-74
2022/02/27 05:04:31;;;;;;;8.35;4.90;;;-0.50;82.60;;;;;;5106828;28;20219;-73
2022/02/27 05:06:57;;;;;;;8.27;5.35;;;-0.50;83.30;;;;;;5102987;28;20232;-74
2022/02/27 05:09:24;;;;;;;15.68;6.40;;;-0.50;83.80;;;;;;5097495;28;20212;-74
2022/02/27 05:11:52;;;;;;;13.38;5.30;;;-0.50;85.00;;;;;;5096286;28;20598;-75
2022/02/27 05:14:19;;;;;;;10.00;4.90;;;-0.40;85.40;;;;;;5095444;28;20228;-74
2022/02/27 05:16:46;;;;;;;8.20;4.72;;;-0.40;85.30;;;;;;5094737;28;20225;-74
2022/02/27 05:19:13;;;;;;;8.80;4.90;;;-0.40;85.30;;;;;;5094163;28;20213;-74
2022/02/27 05:21:40;;;;;;;9.95;5.40;;;-0.40;85.70;;;;;;5093998;28;20369;-74
2022/02/27 05:24:08;;;;;;;9.18;4.93;;;-0.50;86.30;;;;;;5094646;28;20211;-74
2022/02/27 05:26:35;;;;;;;9.32;4.97;;;-0.40;86.70;;;;;;5094466;28;20205;-74
2022/02/27 05:29:04;;;;;;;14.23;6.50;;;-0.40;86.90;;;;;;5094269;28;20205;-74
2022/02/27 05:31:31;;;;;;;14.32;4.80;;;-0.40;87.10;;;;;;5093773;28;20216;-73
2022/02/27 05:33:58;;;;;;;8.88;5.13;;;-0.40;87.10;;;;;;5094505;28;20205;-74
2022/02/27 05:36:25;;;;;;;9.50;5.22;;;-0.40;87.70;;;;;;5094039;28;20212;-74
2022/02/27 05:38:51;;;;;;;11.40;4.78;;;-0.40;87.30;;;;;;5094199;28;20295;-75
2022/02/27 05:41:18;;;;;;;12.88;5.20;;;-0.40;87.20;;;;;;5094320;28;20310;-74
2022/02/27 05:43:45;;;;;;;8.95;4.90;;;-0.40;87.60;;;;;;5094647;28;20244;-74
2022/02/27 05:46:13;;;;;;;12.77;5.30;;;-0.40;88.70;;;;;;5095048;28;20221;-74
2022/02/27 05:48:40;;;;;;;11.80;5.88;;;-0.40;88.20;;;;;;5095895;28;20229;-72
2022/02/27 05:51:07;;;;;;;13.27;5.25;;;-0.40;87.80;;;;;;5096125;28;20209;-74
2022/02/27 05:53:34;;;;;;;10.00;5.45;;;-0.40;88.20;;;;;;5096981;28;20201;-74
2022/02/27 05:56:01;;;;;;;13.95;5.97;;;-0.50;88.40;;;;;;5099406;28;20208;-73
2022/02/27 05:58:30;;;;;;;12.20;6.40;;;-0.50;88.90;;;;;;5108801;28;20216;-73
2022/02/27 06:00:59;;;;;;;9.40;5.03;;;-0.50;88.90;;;;;;5115880;28;20261;-73
2022/02/27 06:03:27;;;;;;;12.43;7.15;;;-0.50;88.90;;;;;;5115587;28;20235;-73
2022/02/27 06:05:54;;;;;;;10.23;5.40;;;-0.60;89.40;;;;;;5114207;28;20292;-73
2022/02/27 06:08:21;;;;;;;11.18;5.85;;;-0.60;89.70;;;;;;5099740;28;20239;-73
2022/02/27 06:10:48;;;;;;;10.45;5.90;;;-0.60;89.80;;;;;;5094206;28;20208;-72
2022/02/27 06:13:15;;;;;;;7.70;5.10;;;-0.60;89.80;;;;;;5093766;28;20600;-73
2022/02/27 06:15:42;;;;;;;15.00;5.63;;;-0.70;89.70;;;;;;5093362;28;20205;-73
2022/02/27 06:18:09;;;;;;;11.07;6.10;;;-0.70;89.90;;;;;;5093214;28;20320;-73
2022/02/27 06:20:37;;;;;;;9.98;5.70;;;-0.70;90.10;;;;;;5093382;28;20296;-73
2022/02/27 06:23:04;;;;;;;12.75;5.45;;;-0.70;90.30;;;;;;5093549;28;20246;-73
2022/02/27 06:25:31;;;;;;;13.95;5.85;;;-0.70;90.50;;;;;;5094270;28;20209;-74
2022/02/27 06:27:59;;;;;;;9.38;6.05;;;-0.60;90.20;;;;;;5100422;28;20230;-73
2022/02/27 06:30:27;;;;;;;9.43;6.05;;;-0.60;90.00;;;;;;5100127;28;20235;-74
2022/02/27 06:32:55;;;;;;;11.68;5.25;;;-0.60;89.70;;;;;;5102653;28;20205;-74
2022/02/27 06:35:24;;;;;;;12.02;5.30;;;-0.60;88.90;;;;;;5101080;28;20280;-74
2022/02/27 06:37:54;;;;;;;9.63;5.05;;;-0.60;88.90;;;;;;5097147;28;20271;-74
2022/02/27 06:40:22;;;;;;;10.55;5.22;;;-0.60;88.90;;;;;;5097749;28;20231;-74
2022/02/27 06:42:49;;;;;;;9.85;5.45;;;-0.50;89.00;;;;;;5093312;28;20282;-74
2022/02/27 06:45:17;;;;;;;14.13;6.40;;;-0.50;89.00;;;;;;5093344;28;20237;-74
2022/02/27 06:47:44;;;;;;;14.75;6.05;;;-0.50;89.60;;;;;;5093268;28;20271;-74
2022/02/27 06:50:12;;;;;;;11.13;5.30;;;-0.50;89.00;;;;;;5093619;28;20216;-74
2022/02/27 06:52:39;;;;;;;13.32;6.72;;;-0.40;89.10;;;;;;5094282;28;20338;-74
2022/02/27 06:55:09;;;;;;;10.85;6.13;;;-0.40;88.90;;;;;;5093938;28;20702;-73
2022/02/27 06:57:36;;;;;;;13.52;5.88;;;-0.40;88.30;;;;;;5096532;28;20332;-74
2022/02/27 07:00:04;;;;;;;15.13;5.13;;;-0.40;88.10;;;;;;5093650;28;20296;-75
2022/02/27 07:02:31;;;;;;;13.02;6.05;;;-0.30;88.30;;;;;;5092455;28;20236;-74
2022/02/27 07:04:58;;;;;;;10.77;5.55;;;-0.20;88.00;;;;;;5093854;28;20205;-75
2022/02/27 07:07:25;;;;;;;19.42;10.10;;;-0.20;87.30;;;;;;5095832;28;20224;-75
2022/02/27 07:09:52;;;;;;;14.20;6.57;;;-0.10;86.80;;;;;;5103318;28;20273;-75
2022/02/27 07:12:20;;;;;;;9.70;5.97;;;-0.10;85.50;;;;;;5098105;28;20205;-75
2022/02/27 07:14:47;;;;;;;17.48;6.43;;;0.00;85.30;;;;;;5102882;28;20236;-75
2022/02/27 07:17:14;;;;;;;10.52;5.45;;;0.00;84.80;;;;;;5098247;28;20239;-75
2022/02/27 07:19:41;;;;;;;11.90;6.18;;;0.10;84.20;;;;;;5093443;28;20297;-75
2022/02/27 07:22:08;;;;;;;13.15;6.40;;;0.20;83.60;;;;;;5093352;28;20317;-75
2022/02/27 07:24:34;;;;;;;14.75;6.63;;;0.20;82.30;;;;;;5093058;28;20647;-75
2022/02/27 07:27:01;;;;;;;12.45;6.03;;;0.30;81.60;;;;;;5095000;28;20229;-75
2022/02/27 07:29:30;;;;;;;10.27;5.45;;;0.40;80.90;;;;;;5097414;28;20215;-75
2022/02/27 07:31:57;;;;;;;12.20;5.95;;;0.50;79.80;;;;;;5106359;28;20209;-74
2022/02/27 07:34:23;;;;;;;14.98;6.25;;;0.60;79.30;;;;;;5108262;28;20201;-74
2022/02/27 07:36:51;;;;;;;10.40;5.95;;;0.70;78.00;;;;;;5099185;28;20320;-75
2022/02/27 07:39:19;;;;;;;14.00;6.32;;;0.70;78.40;;;;;;5097606;28;20211;-74
2022/02/27 07:41:46;;;;;;;11.85;5.80;;;0.80;77.20;;;;;;5096981;28;20225;-75
2022/02/27 07:44:13;;;;;;;12.35;5.82;;;0.90;76.60;;;;;;5103270;28;20272;-74
2022/02/27 07:46:41;;;;;;;14.50;6.57;;;1.00;76.90;;;;;;5105798;28;20300;-75
2022/02/27 07:49:08;;;;;;;10.65;5.85;;;1.10;75.30;;;;;;5101690;28;20213;-75
2022/02/27 07:51:35;;;;;;;16.55;6.35;;;1.20;74.70;;;;;;5101513;28;20201;-75
2022/02/27 07:54:02;;;;;;;8.32;5.28;;;1.30;73.80;;;;;;5097831;28;20213;-74
2022/02/27 07:56:29;;;;;;;10.35;6.20;;;1.50;73.60;;;;;;5097780;28;20292;-75
2022/02/27 07:58:56;;;;;;;10.80;5.95;;;1.60;72.40;;;;;;5096782;28;20663;-74
2022/02/27 08:01:24;;;;;;;12.25;5.78;;;1.70;70.70;;;;;;5095852;28;20292;-75
2022/02/27 08:03:52;;;;;;;9.80;5.53;;;1.80;70.30;;;;;;5096169;28;20232;-74
2022/02/27 08:06:19;;;;;;;10.15;5.07;;;2.00;70.50;;;;;;5096406;28;20685;-75
2022/02/27 08:08:46;;;;;;;7.78;5.40;;;2.10;67.60;;;;;;5096356;28;20209;-75
2022/02/27 08:11:13;;;;;;;9.05;6.05;;;2.20;67.40;;;;;;5095593;28;20654;-73
2022/02/27 08:13:40;;;;;;;7.55;4.75;;;2.20;66.80;;;;;;5096035;28;20247;-72
2022/02/27 08:16:07;;;;;;;10.85;5.63;;;2.40;66.30;;;;;;5097860;28;20202;-73
2022/02/27 08:18:35;;;;;;;9.85;5.85;;;2.50;64.90;;;;;;5097000;28;20678;-74
2022/02/27 08:21:04;;;;;;;13.02;6.90;;;2.60;63.50;;;;;;5094916;28;20231;-74
2022/02/27 08:23:31;;;;;;;9.52;5.05;;;2.60;62.30;;;;;;5095740;28;20236;-73
2022/02/27 08:25:59;;;;;;;10.93;5.85;;;2.80;62.40;;;;;;5098156;28;20297;-74
2022/02/27 08:28:28;;;;;;;10.25;5.45;;;2.90;61.70;;;;;;5097190;28;20221;-74
2022/02/27 08:30:55;;;;;;;7.35;5.25;;;3.10;60.90;;;;;;5096610;28;20201;-75
2022/02/27 08:33:22;;;;;;;13.43;5.82;;;3.20;60.00;;;;;;5097190;28;20202;-74
2022/02/27 08:35:49;;;;;;;9.88;5.57;;;3.30;58.40;;;;;;5095922;28;20314;-74
2022/02/27 08:38:18;;;;;;;7.13;5.07;;;3.50;57.70;;;;;;5094753;28;20347;-75
2022/02/27 08:40:45;;;;;;;7.38;5.00;;;3.70;56.90;;;;;;5094195;28;20580;-75
2022/02/27 08:43:12;;;;;;;12.52;5.57;;;3.70;55.90;;;;;;5095151;28;20785;-74
2022/02/27 08:45:39;;;;;;;6.70;4.82;;;3.90;55.10;;;;;;5098796;28;20691;-75
2022/02/27 08:48:06;;;;;;;13.43;4.95;;;4.00;54.50;;;;;;5104803;28;20235;-74
2022/02/27 08:50:33;;;;;;;8.13;5.15;;;4.10;53.30;;;;;;5097303;28;20566;-73
2022/02/27 08:53:00;;;;;;;10.65;4.90;;;4.20;53.30;;;;;;5097662;28;20199;-76
2022/02/27 08:55:29;;;;;;;8.90;4.50;;;4.20;52.70;;;;;;5096654;28;20210;-74
2022/02/27 08:57:56;;;;;;;6.80;5.05;;;4.30;52.10;;;;;;5095339;28;20256;-74
2022/02/27 09:00:23;;;;;;;8.57;4.40;;;4.40;50.70;;;;;;5094691;28;20285;-75
2022/02/27 09:02:50;;;;;;;10.48;4.78;;;4.50;50.20;;;;;;5095060;28;20218;-74
2022/02/27 09:05:17;;;;;;;6.68;4.97;;;4.60;50.10;;;;;;5095378;28;20205;-75
2022/02/27 09:07:44;;;;;;;8.75;4.60;;;4.60;49.40;;;;;;5095173;28;20234;-74
2022/02/27 09:10:13;;;;;;;5.00;4.13;;;4.60;48.60;;;;;;5095383;28;20209;-74
2022/02/27 09:12:43;;;;;;;5.65;4.35;;;4.70;48.90;;;;;;5094279;28;20745;-75
2022/02/27 09:15:10;;;;;;;7.93;4.80;;;4.80;48.00;;;;;;5094385;28;20231;-75
2022/02/27 09:17:37;;;;;;;6.28;4.68;;;4.80;46.20;;;;;;5094630;28;20225;-75
2022/02/27 09:20:05;;;;;;;7.60;5.35;;;4.90;46.10;;;;;;5095113;28;20228;-74
2022/02/27 09:22:32;;;;;;;6.47;4.90;;;4.90;45.80;;;;;;5095227;28;20323;-74
2022/02/27 09:24:59;;;;;;;7.78;4.55;;;4.90;45.80;;;;;;5097085;28;20236;-72
2022/02/27 09:27:26;;;;;;;7.70;4.45;;;4.90;45.80;;;;;;5097851;28;20230;-74
2022/02/27 09:29:54;;;;;;;6.78;4.75;;;5.00;45.90;;;;;;5106258;28;20567;-74
2022/02/27 09:32:21;;;;;;;8.00;4.90;;;5.20;46.10;;;;;;5104762;28;20225;-74
2022/02/27 09:34:48;;;;;;;6.35;4.90;;;5.30;45.90;;;;;;5104633;28;20282;-75
2022/02/27 09:37:15;;;;;;;8.95;5.18;;;5.40;45.40;;;;;;5100528;28;20240;-75
2022/02/27 09:39:42;;;;;;;9.75;4.63;;;5.40;44.70;;;;;;5096696;28;20203;-74
2022/02/27 09:42:09;;;;;;;11.52;5.00;;;5.50;44.50;;;;;;5095511;28;20203;-74
2022/02/27 09:44:39;;;;;;;10.40;4.60;;;5.50;44.10;;;;;;5096111;28;20214;-74
2022/02/27 09:47:11;;;;;;;7.85;4.40;;;5.50;44.90;;;;;;5095056;28;20228;-74
2022/02/27 09:49:40;;;;;;;6.57;4.60;;;5.60;44.30;;;;;;5099548;28;20195;-74
2022/02/27 09:52:07;;;;;;;6.65;4.63;;;5.80;44.20;;;;;;5101130;28;20203;-74
2022/02/27 09:54:35;;;;;;;7.60;4.30;;;5.70;43.70;;;;;;5096917;28;20206;-74
2022/02/27 09:57:02;;;;;;;9.93;5.80;;;5.90;43.30;;;;;;5094295;28;20306;-73
2022/02/27 09:59:29;;;;;;;6.22;4.60;;;5.90;42.30;;;;;;5097555;28;20260;-74
2022/02/27 10:02:05;;;;;;;5.47;4.78;;;5.70;42.70;;;;;;5097307;28;20229;-75
2022/02/27 10:04:37;;;;;;;6.78;4.53;;;5.60;42.60;;;;;;5094645;28;20771;-74
2022/02/27 10:07:09;;;;;;;7.00;4.95;;;5.60;42.70;;;;;;5094298;28;20654;-74
2022/02/27 10:09:37;;;;;;;7.65;5.07;;;5.90;43.20;;;;;;5094148;28;20205;-74
2022/02/27 10:12:15;;;;;;;6.82;4.93;;;6.10;41.90;;;;;;5093348;28;20627;-74
2022/02/27 10:14:55;;;;;;;6.43;4.22;;;5.90;41.10;;;;;;5096030;28;20214;-74
2022/02/27 10:17:29;;;;;;;7.55;4.82;;;6.00;41.40;;;;;;5094345;28;20230;-74
2022/02/27 10:19:57;;;;;;;6.53;4.80;;;6.20;40.90;;;;;;5093343;28;20274;-74
2022/02/27 10:22:29;;;;;;;6.40;4.43;;;6.30;40.90;;;;;;5096294;28;20203;-74
2022/02/27 10:24:56;;;;;;;8.77;4.13;;;6.40;40.50;;;;;;5098094;28;20222;-74
2022/02/27 10:27:23;;;;;;;9.52;5.00;;;6.40;40.30;;;;;;5095671;28;20246;-75
2022/02/27 10:29:50;;;;;;;5.30;4.80;;;6.50;40.20;;;;;;5097426;28;20203;-75
2022/02/27 10:32:28;;;;;;;6.00;4.75;;;6.50;39.40;;;;;;5097091;28;20215;-75
2022/02/27 10:34:56;;;;;;;6.45;4.57;;;6.60;39.70;;;;;;5097553;28;20192;-75
2022/02/27 10:37:31;;;;;;;9.85;5.05;;;6.70;37.60;;;;;;5096255;28;20316;-73
2022/02/27 10:39:59;;;;;;;7.07;4.50;;;6.60;39.00;;;;;;5096596;28;20222;-73
2022/02/27 10:42:29;;;;;;;7.50;4.32;;;6.60;38.80;;;;;;5096775;28;20203;-75
2022/02/27 10:44:57;;;;;;;7.72;4.75;;;6.70;38.20;;;;;;5095883;28;20368;-74
2022/02/27 10:47:36;;;;;;;6.80;4.95;;;6.80;38.60;;;;;;5099114;28;20227;-74
2022/02/27 10:50:19;;;;;;;8.57;5.20;;;6.90;37.80;;;;;;5097387;28;20302;-74
2022/02/27 10:52:47;;;;;;;5.68;4.28;;;6.80;37.70;;;;;;5097106;28;20238;-73
2022/02/27 10:55:15;;;;;;;5.28;4.13;;;7.10;37.10;;;;;;5097152;28;20211;-72
2022/02/27 10:57:44;;;;;;;5.75;4.60;;;7.20;36.30;;;;;;5105567;28;20207;-74
2022/02/27 11:00:14;;;;;;;5.10;4.30;;;7.30;36.50;;;;;;5109932;28;20635;-75
2022/02/27 11:02:43;;;;;;;8.45;4.90;;;7.50;37.00;;;;;;5107846;28;20309;-75
2022/02/27 11:05:13;;;;;;;4.88;4.40;;;7.60;35.70;;;;;;5108976;28;20235;-74
2022/02/27 11:07:42;;;;;;;5.63;4.07;;;7.30;35.00;;;;;;5099092;28;20726;-75
2022/02/27 11:10:12;;;;;;;7.38;4.18;;;7.30;35.40;;;;;;5098923;28;20225;-74
2022/02/27 11:12:40;;;;;;;4.13;3.72;;;7.40;34.90;;;;;;5099038;28;20234;-74
2022/02/27 11:15:09;;;;;;;6.75;4.05;;;7.40;34.90;;;;;;5099378;28;20214;-75
2022/02/27 11:17:46;;;;;;;5.30;4.18;;;7.50;34.10;;;;;;5100546;28;20227;-75
2022/02/27 11:20:16;;;;;;;7.45;3.80;;;7.60;34.10;;;;;;5100301;28;20198;-74
2022/02/27 11:22:43;;;;;;;7.55;3.90;;;7.50;34.10;;;;;;5100433;28;20290;-73
2022/02/27 11:25:11;;;;;;;5.57;3.90;;;7.70;34.30;;;;;;5102352;28;20287;-74
2022/02/27 11:27:42;;;;;;;4.15;3.08;;;8.10;32.40;;;;;;5110584;28;20246;-74
2022/02/27 11:30:11;;;;;;;2.90;2.53;;;7.90;29.00;;;;;;5108985;28;20198;-73
2022/02/27 11:32:48;;;;;;;7.10;3.30;;;8.10;27.80;;;;;;5098502;28;20208;-74
2022/02/27 11:35:40;;;;;;;3.95;2.40;;;8.20;27.60;;;;;;5099122;28;20205;-74
2022/02/27 11:38:09;;;;;;;4.45;2.80;;;8.40;26.10;;;;;;5098862;28;20237;-74
2022/02/27 11:40:52;;;;;;;3.80;2.35;;;8.30;26.20;;;;;;5099474;28;20222;-74
2022/02/27 11:43:37;;;;;;;3.80;2.85;;;8.20;26.10;;;;;;5100542;28;20234;-73
2022/02/27 11:46:04;;;;;;;3.58;3.03;;;8.20;25.30;;;;;;5105217;28;20211;-74
2022/02/27 11:48:57;;;;;;;3.72;2.88;;;8.10;25.00;;;;;;5107724;28;20275;-74
2022/02/27 11:51:42;;;;;;;3.25;2.40;;;8.30;25.80;;;;;;5106111;28;20199;-75
2022/02/27 11:54:11;;;;;;;3.90;2.83;;;8.60;25.80;;;;;;5109973;28;20286;-73
2022/02/27 11:56:38;;;;;;;7.85;3.00;;;8.90;25.70;;;;;;5098046;28;20280;-74
2022/02/27 11:59:06;;;;;;;5.65;2.60;;;9.00;25.20;;;;;;5100185;28;20206;-74
2022/02/27 12:01:37;;;;;;;5.07;3.10;;;8.90;24.00;;;;;;5113901;28;20216;-74
2022/02/27 12:04:23;;;;;;;2.78;2.58;;;8.50;23.50;;;;;;5107728;28;20224;-75
2022/02/27 12:07:06;;;;;;;3.05;2.55;;;8.40;24.50;;;;;;5098144;28;20708;-75
2022/02/27 12:09:54;;;;;;;3.00;2.70;;;8.40;24.10;;;;;;5096239;28;20209;-74
2022/02/27 12:12:58;;;;;;;5.03;3.30;;;8.50;24.70;;;;;;5087006;28;20243;-74
2022/02/27 12:15:33;;;;;;;2.80;2.50;;;8.60;23.70;;;;;;5095815;28;20641;-74
2022/02/27 12:18:03;;;;;;;3.45;2.80;;;8.40;24.20;;;;;;5095123;28;20235;-74
2022/02/27 12:20:55;;;;;;;5.90;2.75;;;8.60;23.50;;;;;;5095437;28;20211;-74
2022/02/27 12:23:47;;;;;;;4.50;2.95;;;8.60;23.40;;;;;;5096487;28;20225;-74
2022/02/27 12:26:48;;;;;;;3.10;2.90;;;8.70;24.20;;;;;;5096874;28;20240;-74
2022/02/27 12:29:36;;;;;;;3.55;2.60;;;8.90;25.10;;;;;;5095198;28;20271;-73
2022/02/27 12:32:09;;;;;;;5.30;2.92;;;9.00;25.20;;;;;;5095493;28;20196;-73
2022/02/27 12:34:37;;;;;;;4.15;3.00;;;9.20;25.60;;;;;;5096855;28;20215;-74
2022/02/27 12:37:06;;;;;;;4.38;2.90;;;9.00;25.80;;;;;;5094700;28;20241;-73
2022/02/27 12:39:39;;;;;;;3.00;2.70;;;9.00;25.80;;;;;;5095085;28;20193;-74
2022/02/27 12:42:08;;;;;;;4.53;2.70;;;9.00;25.80;;;;;;5094485;28;20231;-74
2022/02/27 12:44:37;;;;;;;3.10;2.80;;;9.10;24.10;;;;;;5095254;28;20897;-73
2022/02/27 12:47:06;;;;;;;4.25;2.95;;;9.00;24.10;;;;;;5094704;28;20315;-74
2022/02/27 12:52:22;;;;;;;3.92;2.40;;;9.00;23.20;;;;;;5094179;28;20204;-73
2022/02/27 12:54:52;;;;;;;6.32;3.25;;;8.80;24.00;;;;;;5094077;28;20205;-73
2022/02/27 12:57:20;;;;;;;2.78;2.45;;;8.80;23.10;;;;;;5094475;28;20322;-73